sensor_id;sensor_type;location;lat;lon;timestamp;temperature;humidity
43999;DHT22;51319;52.162;5.302;2023-02-28T00:00:37;1.60;92.00
43999;DHT22;51319;52.162;5.302;2023-02-28T00:03:05;1.60;92.00
43999;DHT22;51319;52.162;5.302;2023-02-28T00:05:32;1.70;92.00
43999;DHT22;51319;52.162;5.302;2023-02-28T00:07:59;1.70;92.00
43999;DHT22;51319;52.162;5.302;2023-02-28T00:10:28;1.70;92.10
43999;DHT22;51319;52.162;5.302;2023-02-28T00:12:59;1.80;92.10
43999;DHT22;51319;52.162;5.302;2023-02-28T00:15:27;1.80;92.10
43999;DHT22;51319;52.162;5.302;2023-02-28T00:17:54;1.80;92.30
43999;DHT22;51319;52.162;5.302;2023-02-28T00:20:21;1.80;92.30
43999;DHT22;51319;52.162;5.302;2023-02-28T00:22:50;1.90;92.40
43999;DHT22;51319;52.162;5.302;2023-02-28T00:25:20;1.90;92.40
43999;DHT22;51319;52.162;5.302;2023-02-28T00:27:48;1.90;92.40
43999;DHT22;51319;52.162;5.302;2023-02-28T00:30:20;2.00;92.60
43999;DHT22;51319;52.162;5.302;2023-02-28T00:32:48;2.00;92.70
43999;DHT22;51319;52.162;5.302;2023-02-28T00:35:16;2.00;92.90
43999;DHT22;51319;52.162;5.302;2023-02-28T00:37:43;2.10;92.70
43999;DHT22;51319;52.162;5.302;2023-02-28T00:40:10;2.10;92.90
43999;DHT22;51319;52.162;5.302;2023-02-28T00:42:39;2.10;93.00
43999;DHT22;51319;52.162;5.302;2023-02-28T00:45:07;2.10;93.00
43999;DHT22;51319;52.162;5.302;2023-02-28T00:47:35;2.20;92.90
43999;DHT22;51319;52.162;5.302;2023-02-28T00:50:03;2.10;92.90
43999;DHT22;51319;52.162;5.302;2023-02-28T00:52:30;2.10;92.80
43999;DHT22;51319;52.162;5.302;2023-02-28T00:54:56;2.20;92.80
43999;DHT22;51319;52.162;5.302;2023-02-28T00:57:23;2.20;92.80
43999;DHT22;51319;52.162;5.302;2023-02-28T00:59:50;2.20;92.70
43999;DHT22;51319;52.162;5.302;2023-02-28T01:02:17;2.20;92.70
43999;DHT22;51319;52.162;5.302;2023-02-28T01:04:44;2.20;92.70
43999;DHT22;51319;52.162;5.302;2023-02-28T01:07:11;2.20;92.80
43999;DHT22;51319;52.162;5.302;2023-02-28T01:09:47;2.20;92.90
43999;DHT22;51319;52.162;5.302;2023-02-28T01:12:14;2.20;93.00
43999;DHT22;51319;52.162;5.302;2023-02-28T01:14:41;2.20;93.20
43999;DHT22;51319;52.162;5.302;2023-02-28T01:17:08;2.20;93.30
43999;DHT22;51319;52.162;5.302;2023-02-28T01:19:36;2.20;93.30
43999;DHT22;51319;52.162;5.302;2023-02-28T01:22:04;2.20;93.40
43999;DHT22;51319;52.162;5.302;2023-02-28T01:24:32;2.20;93.40
43999;DHT22;51319;52.162;5.302;2023-02-28T01:27:00;2.20;93.40
43999;DHT22;51319;52.162;5.302;2023-02-28T01:29:27;2.20;93.40
43999;DHT22;51319;52.162;5.302;2023-02-28T01:31:53;2.20;93.40
43999;DHT22;51319;52.162;5.302;2023-02-28T01:34:20;2.20;93.40
43999;DHT22;51319;52.162;5.302;2023-02-28T01:36:47;2.30;93.50
43999;DHT22;51319;52.162;5.302;2023-02-28T01:39:14;2.30;93.50
43999;DHT22;51319;52.162;5.302;2023-02-28T01:41:41;2.20;93.60
43999;DHT22;51319;52.162;5.302;2023-02-28T01:47:13;2.30;94.10
43999;DHT22;51319;52.162;5.302;2023-02-28T01:49:41;2.30;94.20
43999;DHT22;51319;52.162;5.302;2023-02-28T01:52:10;2.30;94.10
43999;DHT22;51319;52.162;5.302;2023-02-28T01:54:41;2.30;94.20
43999;DHT22;51319;52.162;5.302;2023-02-28T01:57:11;2.30;94.40
43999;DHT22;51319;52.162;5.302;2023-02-28T01:59:41;2.30;94.60
43999;DHT22;51319;52.162;5.302;2023-02-28T02:02:19;2.40;94.70
43999;DHT22;51319;52.162;5.302;2023-02-28T02:05:03;2.40;94.40
43999;DHT22;51319;52.162;5.302;2023-02-28T02:07:33;2.40;94.40
43999;DHT22;51319;52.162;5.302;2023-02-28T02:10:17;2.50;94.40
43999;DHT22;51319;52.162;5.302;2023-02-28T02:21:09;2.60;94.70
43999;DHT22;51319;52.162;5.302;2023-02-28T02:29:27;2.60;94.90
43999;DHT22;51319;52.162;5.302;2023-02-28T02:40:41;2.70;95.10
43999;DHT22;51319;52.162;5.302;2023-02-28T02:43:13;2.70;95.20
43999;DHT22;51319;52.162;5.302;2023-02-28T02:45:53;2.80;95.20
43999;DHT22;51319;52.162;5.302;2023-02-28T02:48:26;2.80;95.30
43999;DHT22;51319;52.162;5.302;2023-02-28T02:50:56;2.80;95.30
43999;DHT22;51319;52.162;5.302;2023-02-28T02:53:37;2.80;95.40
43999;DHT22;51319;52.162;5.302;2023-02-28T02:56:06;2.80;95.50
43999;DHT22;51319;52.162;5.302;2023-02-28T02:58:40;2.80;95.60
43999;DHT22;51319;52.162;5.302;2023-02-28T03:01:14;2.80;95.60
43999;DHT22;51319;52.162;5.302;2023-02-28T03:03:43;2.90;95.60
43999;DHT22;51319;52.162;5.302;2023-02-28T03:06:11;2.90;95.70
43999;DHT22;51319;52.162;5.302;2023-02-28T03:08:38;2.90;95.80
43999;DHT22;51319;52.162;5.302;2023-02-28T03:11:10;2.90;95.80
43999;DHT22;51319;52.162;5.302;2023-02-28T03:14:13;2.90;95.90
43999;DHT22;51319;52.162;5.302;2023-02-28T03:22:45;2.90;95.90
43999;DHT22;51319;52.162;5.302;2023-02-28T03:28:35;3.00;95.90
43999;DHT22;51319;52.162;5.302;2023-02-28T03:31:26;2.90;95.90
43999;DHT22;51319;52.162;5.302;2023-02-28T03:34:07;2.90;96.00
43999;DHT22;51319;52.162;5.302;2023-02-28T03:36:41;2.90;96.20
43999;DHT22;51319;52.162;5.302;2023-02-28T03:39:45;2.90;96.30
43999;DHT22;51319;52.162;5.302;2023-02-28T03:42:22;2.90;96.50
43999;DHT22;51319;52.162;5.302;2023-02-28T03:45:10;2.90;96.40
43999;DHT22;51319;52.162;5.302;2023-02-28T03:47:54;3.00;96.50
43999;DHT22;51319;52.162;5.302;2023-02-28T03:50:35;3.00;96.50
43999;DHT22;51319;52.162;5.302;2023-02-28T03:53:10;3.00;96.40
43999;DHT22;51319;52.162;5.302;2023-02-28T03:58:49;3.00;96.70
43999;DHT22;51319;52.162;5.302;2023-02-28T04:01:25;3.00;96.40
43999;DHT22;51319;52.162;5.302;2023-02-28T04:03:54;2.90;96.50
43999;DHT22;51319;52.162;5.302;2023-02-28T04:06:22;2.90;96.60
43999;DHT22;51319;52.162;5.302;2023-02-28T04:08:50;2.90;96.80
43999;DHT22;51319;52.162;5.302;2023-02-28T04:11:21;2.90;96.90
43999;DHT22;51319;52.162;5.302;2023-02-28T04:13:48;3.00;97.00
43999;DHT22;51319;52.162;5.302;2023-02-28T04:16:15;3.00;97.00
43999;DHT22;51319;52.162;5.302;2023-02-28T04:18:59;3.00;96.70
43999;DHT22;51319;52.162;5.302;2023-02-28T04:21:34;3.00;96.70
43999;DHT22;51319;52.162;5.302;2023-02-28T04:24:01;3.00;96.80
43999;DHT22;51319;52.162;5.302;2023-02-28T04:26:32;3.00;96.90
43999;DHT22;51319;52.162;5.302;2023-02-28T04:29:01;3.00;96.90
43999;DHT22;51319;52.162;5.302;2023-02-28T04:31:28;3.00;96.80
43999;DHT22;51319;52.162;5.302;2023-02-28T04:33:56;3.00;96.70
43999;DHT22;51319;52.162;5.302;2023-02-28T04:36:23;3.00;96.70
43999;DHT22;51319;52.162;5.302;2023-02-28T04:38:50;3.00;96.50
43999;DHT22;51319;52.162;5.302;2023-02-28T04:41:17;3.00;96.20
43999;DHT22;51319;52.162;5.302;2023-02-28T04:43:44;3.00;95.70
43999;DHT22;51319;52.162;5.302;2023-02-28T04:46:11;3.00;94.80
43999;DHT22;51319;52.162;5.302;2023-02-28T04:48:39;2.90;93.80
43999;DHT22;51319;52.162;5.302;2023-02-28T04:51:09;2.90;92.70
43999;DHT22;51319;52.162;5.302;2023-02-28T04:53:37;2.90;91.80
43999;DHT22;51319;52.162;5.302;2023-02-28T04:56:06;2.80;90.80
43999;DHT22;51319;52.162;5.302;2023-02-28T04:58:34;2.80;90.20
43999;DHT22;51319;52.162;5.302;2023-02-28T05:01:05;2.80;89.30
43999;DHT22;51319;52.162;5.302;2023-02-28T05:03:39;2.70;88.00
43999;DHT22;51319;52.162;5.302;2023-02-28T05:06:12;2.70;87.20
43999;DHT22;51319;52.162;5.302;2023-02-28T05:08:39;2.70;86.80
43999;DHT22;51319;52.162;5.302;2023-02-28T05:11:10;2.70;86.60
43999;DHT22;51319;52.162;5.302;2023-02-28T05:13:38;2.70;86.10
43999;DHT22;51319;52.162;5.302;2023-02-28T05:16:05;2.70;85.60
43999;DHT22;51319;52.162;5.302;2023-02-28T05:18:32;2.70;85.60
43999;DHT22;51319;52.162;5.302;2023-02-28T05:21:00;2.60;85.40
43999;DHT22;51319;52.162;5.302;2023-02-28T05:23:29;2.60;85.20
43999;DHT22;51319;52.162;5.302;2023-02-28T05:25:55;2.60;84.90
43999;DHT22;51319;52.162;5.302;2023-02-28T05:28:22;2.60;84.70
43999;DHT22;51319;52.162;5.302;2023-02-28T05:30:49;2.60;84.60
43999;DHT22;51319;52.162;5.302;2023-02-28T05:33:16;2.60;84.70
43999;DHT22;51319;52.162;5.302;2023-02-28T05:35:43;2.60;84.80
43999;DHT22;51319;52.162;5.302;2023-02-28T05:38:09;2.50;85.00
43999;DHT22;51319;52.162;5.302;2023-02-28T05:40:38;2.50;85.30
43999;DHT22;51319;52.162;5.302;2023-02-28T05:43:09;2.40;85.70
43999;DHT22;51319;52.162;5.302;2023-02-28T05:45:36;2.30;86.40
43999;DHT22;51319;52.162;5.302;2023-02-28T05:48:03;2.30;87.10
43999;DHT22;51319;52.162;5.302;2023-02-28T05:50:30;2.30;87.90
43999;DHT22;51319;52.162;5.302;2023-02-28T05:52:57;2.30;88.90
43999;DHT22;51319;52.162;5.302;2023-02-28T05:55:24;2.20;89.40
43999;DHT22;51319;52.162;5.302;2023-02-28T05:57:50;2.20;90.10
43999;DHT22;51319;52.162;5.302;2023-02-28T06:00:17;2.20;90.40
43999;DHT22;51319;52.162;5.302;2023-02-28T06:02:44;2.10;90.70
43999;DHT22;51319;52.162;5.302;2023-02-28T06:05:14;2.10;90.90
43999;DHT22;51319;52.162;5.302;2023-02-28T06:07:41;2.10;91.30
43999;DHT22;51319;52.162;5.302;2023-02-28T06:10:12;2.00;91.50
43999;DHT22;51319;52.162;5.302;2023-02-28T06:12:40;2.00;91.80
43999;DHT22;51319;52.162;5.302;2023-02-28T06:15:12;1.90;92.10
43999;DHT22;51319;52.162;5.302;2023-02-28T06:17:40;1.90;92.50
43999;DHT22;51319;52.162;5.302;2023-02-28T06:20:09;1.90;92.70
43999;DHT22;51319;52.162;5.302;2023-02-28T06:22:36;1.90;93.00
43999;DHT22;51319;52.162;5.302;2023-02-28T06:25:05;1.90;93.40
43999;DHT22;51319;52.162;5.302;2023-02-28T06:27:33;1.80;93.70
43999;DHT22;51319;52.162;5.302;2023-02-28T06:30:02;1.80;94.10
43999;DHT22;51319;52.162;5.302;2023-02-28T06:32:30;1.90;94.40
43999;DHT22;51319;52.162;5.302;2023-02-28T06:34:56;1.80;94.60
43999;DHT22;51319;52.162;5.302;2023-02-28T06:37:24;1.80;95.00
43999;DHT22;51319;52.162;5.302;2023-02-28T06:39:54;1.90;95.20
43999;DHT22;51319;52.162;5.302;2023-02-28T06:42:24;1.90;95.20
43999;DHT22;51319;52.162;5.302;2023-02-28T06:44:55;1.80;95.30
43999;DHT22;51319;52.162;5.302;2023-02-28T06:47:23;1.80;95.40
43999;DHT22;51319;52.162;5.302;2023-02-28T06:49:50;1.80;95.60
43999;DHT22;51319;52.162;5.302;2023-02-28T06:52:16;1.90;96.10
43999;DHT22;51319;52.162;5.302;2023-02-28T06:54:43;1.90;96.30
43999;DHT22;51319;52.162;5.302;2023-02-28T06:57:10;1.90;96.50
43999;DHT22;51319;52.162;5.302;2023-02-28T06:59:37;2.00;96.60
43999;DHT22;51319;52.162;5.302;2023-02-28T07:02:04;2.00;96.60
43999;DHT22;51319;52.162;5.302;2023-02-28T07:04:33;2.00;96.60
43999;DHT22;51319;52.162;5.302;2023-02-28T07:06:59;2.00;96.60
43999;DHT22;51319;52.162;5.302;2023-02-28T07:09:26;2.00;96.70
43999;DHT22;51319;52.162;5.302;2023-02-28T07:11:56;2.00;96.80
43999;DHT22;51319;52.162;5.302;2023-02-28T07:14:23;2.00;96.90
43999;DHT22;51319;52.162;5.302;2023-02-28T07:16:50;2.00;97.00
43999;DHT22;51319;52.162;5.302;2023-02-28T07:19:17;2.00;97.30
43999;DHT22;51319;52.162;5.302;2023-02-28T07:21:44;2.10;97.60
43999;DHT22;51319;52.162;5.302;2023-02-28T07:24:11;2.10;97.70
43999;DHT22;51319;52.162;5.302;2023-02-28T07:26:38;2.20;97.80
43999;DHT22;51319;52.162;5.302;2023-02-28T07:29:06;2.20;97.70
43999;DHT22;51319;52.162;5.302;2023-02-28T07:31:32;2.20;97.80
43999;DHT22;51319;52.162;5.302;2023-02-28T07:33:59;2.20;98.10
43999;DHT22;51319;52.162;5.302;2023-02-28T07:36:26;2.20;98.30
43999;DHT22;51319;52.162;5.302;2023-02-28T07:38:53;2.20;98.50
43999;DHT22;51319;52.162;5.302;2023-02-28T07:41:21;2.30;98.60
43999;DHT22;51319;52.162;5.302;2023-02-28T07:43:49;2.30;98.50
43999;DHT22;51319;52.162;5.302;2023-02-28T07:46:16;2.30;98.50
43999;DHT22;51319;52.162;5.302;2023-02-28T07:48:44;2.40;98.70
43999;DHT22;51319;52.162;5.302;2023-02-28T07:51:11;2.40;98.70
43999;DHT22;51319;52.162;5.302;2023-02-28T07:53:38;2.40;98.80
43999;DHT22;51319;52.162;5.302;2023-02-28T07:56:06;2.40;98.80
43999;DHT22;51319;52.162;5.302;2023-02-28T07:58:33;2.40;98.80
43999;DHT22;51319;52.162;5.302;2023-02-28T08:01:08;2.40;98.80
43999;DHT22;51319;52.162;5.302;2023-02-28T08:03:36;2.50;99.00
43999;DHT22;51319;52.162;5.302;2023-02-28T08:06:04;2.60;99.20
43999;DHT22;51319;52.162;5.302;2023-02-28T08:08:31;2.60;99.00
43999;DHT22;51319;52.162;5.302;2023-02-28T08:11:00;2.60;99.10
43999;DHT22;51319;52.162;5.302;2023-02-28T08:13:28;2.60;98.80
43999;DHT22;51319;52.162;5.302;2023-02-28T08:15:56;2.60;98.70
43999;DHT22;51319;52.162;5.302;2023-02-28T08:18:23;2.60;98.80
43999;DHT22;51319;52.162;5.302;2023-02-28T08:20:50;2.70;98.90
43999;DHT22;51319;52.162;5.302;2023-02-28T08:23:18;2.70;98.80
43999;DHT22;51319;52.162;5.302;2023-02-28T08:25:52;2.80;98.80
43999;DHT22;51319;52.162;5.302;2023-02-28T08:28:19;2.80;98.80
43999;DHT22;51319;52.162;5.302;2023-02-28T08:30:45;2.80;98.90
43999;DHT22;51319;52.162;5.302;2023-02-28T08:33:12;2.90;98.90
43999;DHT22;51319;52.162;5.302;2023-02-28T08:35:39;2.90;98.80
43999;DHT22;51319;52.162;5.302;2023-02-28T08:38:06;3.00;98.70
43999;DHT22;51319;52.162;5.302;2023-02-28T08:40:33;3.10;98.70
43999;DHT22;51319;52.162;5.302;2023-02-28T08:42:59;3.10;98.60
43999;DHT22;51319;52.162;5.302;2023-02-28T08:45:27;3.20;98.60
43999;DHT22;51319;52.162;5.302;2023-02-28T08:47:56;3.30;98.60
43999;DHT22;51319;52.162;5.302;2023-02-28T08:50:23;3.30;98.50
43999;DHT22;51319;52.162;5.302;2023-02-28T08:52:50;3.30;98.40
43999;DHT22;51319;52.162;5.302;2023-02-28T08:55:17;3.40;98.20
43999;DHT22;51319;52.162;5.302;2023-02-28T08:57:44;3.50;98.10
43999;DHT22;51319;52.162;5.302;2023-02-28T09:00:12;3.60;97.80
43999;DHT22;51319;52.162;5.302;2023-02-28T09:02:40;3.70;97.50
43999;DHT22;51319;52.162;5.302;2023-02-28T09:05:09;3.70;97.00
43999;DHT22;51319;52.162;5.302;2023-02-28T09:07:36;3.70;96.50
43999;DHT22;51319;52.162;5.302;2023-02-28T09:10:03;3.70;95.80
43999;DHT22;51319;52.162;5.302;2023-02-28T09:12:33;3.70;94.90
43999;DHT22;51319;52.162;5.302;2023-02-28T09:15:01;3.80;93.70
43999;DHT22;51319;52.162;5.302;2023-02-28T09:17:28;3.80;92.60
43999;DHT22;51319;52.162;5.302;2023-02-28T09:19:56;3.80;91.80
43999;DHT22;51319;52.162;5.302;2023-02-28T09:22:24;3.80;91.30
43999;DHT22;51319;52.162;5.302;2023-02-28T09:24:51;3.90;90.80
43999;DHT22;51319;52.162;5.302;2023-02-28T09:27:18;4.00;89.00
43999;DHT22;51319;52.162;5.302;2023-02-28T09:29:45;4.20;87.50
43999;DHT22;51319;52.162;5.302;2023-02-28T09:32:12;4.70;86.20
43999;DHT22;51319;52.162;5.302;2023-02-28T09:34:40;5.20;84.20
43999;DHT22;51319;52.162;5.302;2023-02-28T09:37:07;6.90;83.40
43999;DHT22;51319;52.162;5.302;2023-02-28T09:39:34;7.70;77.80
43999;DHT22;51319;52.162;5.302;2023-02-28T09:42:02;8.00;72.50
43999;DHT22;51319;52.162;5.302;2023-02-28T09:44:42;7.90;67.90
43999;DHT22;51319;52.162;5.302;2023-02-28T09:47:23;7.80;66.10
43999;DHT22;51319;52.162;5.302;2023-02-28T09:49:54;8.00;66.20
43999;DHT22;51319;52.162;5.302;2023-02-28T09:52:32;8.20;63.90
43999;DHT22;51319;52.162;5.302;2023-02-28T09:57:42;9.10;59.80
43999;DHT22;51319;52.162;5.302;2023-02-28T10:03:02;11.00;52.10
43999;DHT22;51319;52.162;5.302;2023-02-28T10:05:41;11.00;49.30
43999;DHT22;51319;52.162;5.302;2023-02-28T10:08:11;10.30;48.50
43999;DHT22;51319;52.162;5.302;2023-02-28T10:10:45;9.60;48.70
43999;DHT22;51319;52.162;5.302;2023-02-28T10:15:48;8.80;47.90
43999;DHT22;51319;52.162;5.302;2023-02-28T10:18:19;8.70;48.30
43999;DHT22;51319;52.162;5.302;2023-02-28T10:20:48;8.50;48.10
43999;DHT22;51319;52.162;5.302;2023-02-28T10:23:39;8.40;48.40
43999;DHT22;51319;52.162;5.302;2023-02-28T10:26:12;8.60;48.70
43999;DHT22;51319;52.162;5.302;2023-02-28T10:28:40;8.70;48.70
43999;DHT22;51319;52.162;5.302;2023-02-28T10:31:16;9.00;47.20
43999;DHT22;51319;52.162;5.302;2023-02-28T10:33:44;9.70;45.90
43999;DHT22;51319;52.162;5.302;2023-02-28T10:36:16;11.50;44.90
43999;DHT22;51319;52.162;5.302;2023-02-28T10:38:45;14.60;40.70
43999;DHT22;51319;52.162;5.302;2023-02-28T10:41:15;15.80;38.50
43999;DHT22;51319;52.162;5.302;2023-02-28T10:43:43;16.10;37.00
43999;DHT22;51319;52.162;5.302;2023-02-28T10:46:15;16.00;36.40
43999;DHT22;51319;52.162;5.302;2023-02-28T10:49:05;17.20;35.50
43999;DHT22;51319;52.162;5.302;2023-02-28T10:51:40;19.10;33.80
43999;DHT22;51319;52.162;5.302;2023-02-28T10:54:20;20.50;31.50
43999;DHT22;51319;52.162;5.302;2023-02-28T10:59:33;22.50;29.70
43999;DHT22;51319;52.162;5.302;2023-02-28T11:02:00;23.30;28.00
43999;DHT22;51319;52.162;5.302;2023-02-28T11:07:23;24.30;27.30
43999;DHT22;51319;52.162;5.302;2023-02-28T11:09:55;24.70;26.40
43999;DHT22;51319;52.162;5.302;2023-02-28T11:12:34;24.70;26.00
43999;DHT22;51319;52.162;5.302;2023-02-28T11:18:04;25.30;25.50
43999;DHT22;51319;52.162;5.302;2023-02-28T11:20:35;25.20;24.70
43999;DHT22;51319;52.162;5.302;2023-02-28T11:23:03;25.40;25.10
43999;DHT22;51319;52.162;5.302;2023-02-28T11:25:33;25.70;25.00
43999;DHT22;51319;52.162;5.302;2023-02-28T11:28:08;25.70;25.10
43999;DHT22;51319;52.162;5.302;2023-02-28T11:33:32;26.10;24.30
43999;DHT22;51319;52.162;5.302;2023-02-28T11:36:17;26.20;24.60
43999;DHT22;51319;52.162;5.302;2023-02-28T11:38:48;26.20;24.30
43999;DHT22;51319;52.162;5.302;2023-02-28T11:41:19;26.20;24.40
43999;DHT22;51319;52.162;5.302;2023-02-28T11:43:59;26.40;24.10
43999;DHT22;51319;52.162;5.302;2023-02-28T11:54:34;26.80;23.90
43999;DHT22;51319;52.162;5.302;2023-02-28T12:00:25;27.20;23.30
43999;DHT22;51319;52.162;5.302;2023-02-28T12:11:50;27.20;23.30
43999;DHT22;51319;52.162;5.302;2023-02-28T12:14:42;27.30;23.10
43999;DHT22;51319;52.162;5.302;2023-02-28T12:19:43;27.50;22.80
43999;DHT22;51319;52.162;5.302;2023-02-28T12:27:28;27.20;23.10
43999;DHT22;51319;52.162;5.302;2023-02-28T12:32:49;26.70;22.40
43999;DHT22;51319;52.162;5.302;2023-02-28T12:35:24;26.50;22.80
43999;DHT22;51319;52.162;5.302;2023-02-28T12:38:14;26.30;23.10
43999;DHT22;51319;52.162;5.302;2023-02-28T12:41:00;25.90;23.20
43999;DHT22;51319;52.162;5.302;2023-02-28T12:43:38;25.30;22.80
43999;DHT22;51319;52.162;5.302;2023-02-28T12:46:22;24.60;23.00
43999;DHT22;51319;52.162;5.302;2023-02-28T12:48:56;23.80;23.30
43999;DHT22;51319;52.162;5.302;2023-02-28T12:51:26;23.20;24.00
43999;DHT22;51319;52.162;5.302;2023-02-28T12:54:15;22.40;23.90
43999;DHT22;51319;52.162;5.302;2023-02-28T12:57:15;21.90;24.20
43999;DHT22;51319;52.162;5.302;2023-02-28T12:59:52;21.50;24.50
43999;DHT22;51319;52.162;5.302;2023-02-28T13:08:59;19.30;25.90
43999;DHT22;51319;52.162;5.302;2023-02-28T13:11:38;18.60;26.80
43999;DHT22;51319;52.162;5.302;2023-02-28T13:19:57;16.40;27.70
43999;DHT22;51319;52.162;5.302;2023-02-28T13:24:53;16.80;28.20
43999;DHT22;51319;52.162;5.302;2023-02-28T13:27:40;16.50;28.20
43999;DHT22;51319;52.162;5.302;2023-02-28T13:36:36;16.10;29.10
43999;DHT22;51319;52.162;5.302;2023-02-28T13:38:55;16.00;28.80
43999;DHT22;51319;52.162;5.302;2023-02-28T13:44:20;15.80;29.50
43999;DHT22;51319;52.162;5.302;2023-02-28T13:55:00;15.70;29.20
43999;DHT22;51319;52.162;5.302;2023-02-28T14:05:20;15.60;29.00
43999;DHT22;51319;52.162;5.302;2023-02-28T14:07:56;15.70;29.40
43999;DHT22;51319;52.162;5.302;2023-02-28T14:11:03;15.90;29.30
43999;DHT22;51319;52.162;5.302;2023-02-28T14:13:45;15.20;29.50
43999;DHT22;51319;52.162;5.302;2023-02-28T14:16:24;14.90;29.60
43999;DHT22;51319;52.162;5.302;2023-02-28T14:19:10;15.00;29.90
43999;DHT22;51319;52.162;5.302;2023-02-28T14:22:18;15.10;29.90
43999;DHT22;51319;52.162;5.302;2023-02-28T14:30:36;14.70;30.70
43999;DHT22;51319;52.162;5.302;2023-02-28T14:33:26;14.70;30.90
43999;DHT22;51319;52.162;5.302;2023-02-28T14:38:31;15.10;30.70
43999;DHT22;51319;52.162;5.302;2023-02-28T14:41:04;15.10;30.60
43999;DHT22;51319;52.162;5.302;2023-02-28T14:43:33;15.00;29.80
43999;DHT22;51319;52.162;5.302;2023-02-28T14:46:03;14.90;29.70
43999;DHT22;51319;52.162;5.302;2023-02-28T14:48:32;14.70;30.00
43999;DHT22;51319;52.162;5.302;2023-02-28T14:51:01;14.40;30.30
43999;DHT22;51319;52.162;5.302;2023-02-28T14:53:36;14.30;30.70
43999;DHT22;51319;52.162;5.302;2023-02-28T14:56:04;14.10;30.80
43999;DHT22;51319;52.162;5.302;2023-02-28T14:58:33;14.00;31.60
43999;DHT22;51319;52.162;5.302;2023-02-28T15:01:02;14.10;31.40
43999;DHT22;51319;52.162;5.302;2023-02-28T15:03:33;14.10;31.40
43999;DHT22;51319;52.162;5.302;2023-02-28T15:06:11;14.30;31.20
43999;DHT22;51319;52.162;5.302;2023-02-28T15:08:39;14.30;31.40
43999;DHT22;51319;52.162;5.302;2023-02-28T15:11:08;14.10;31.10
43999;DHT22;51319;52.162;5.302;2023-02-28T15:13:46;13.90;30.50
43999;DHT22;51319;52.162;5.302;2023-02-28T15:16:37;13.50;30.90
43999;DHT22;51319;52.162;5.302;2023-02-28T15:19:30;13.10;32.00
43999;DHT22;51319;52.162;5.302;2023-02-28T15:22:05;12.60;32.80
43999;DHT22;51319;52.162;5.302;2023-02-28T15:24:39;12.20;32.80
43999;DHT22;51319;52.162;5.302;2023-02-28T15:27:25;11.90;33.10
43999;DHT22;51319;52.162;5.302;2023-02-28T15:30:07;11.50;33.50
43999;DHT22;51319;52.162;5.302;2023-02-28T15:32:36;11.20;34.00
43999;DHT22;51319;52.162;5.302;2023-02-28T15:37:58;10.50;35.30
43999;DHT22;51319;52.162;5.302;2023-02-28T15:40:28;10.30;35.60
43999;DHT22;51319;52.162;5.302;2023-02-28T15:45:38;10.00;36.20
43999;DHT22;51319;52.162;5.302;2023-02-28T15:50:54;9.70;37.10
43999;DHT22;51319;52.162;5.302;2023-02-28T15:53:32;9.60;37.60
43999;DHT22;51319;52.162;5.302;2023-02-28T15:56:02;9.40;38.00
43999;DHT22;51319;52.162;5.302;2023-02-28T15:58:31;9.30;38.00
43999;DHT22;51319;52.162;5.302;2023-02-28T16:01:05;9.30;38.20
43999;DHT22;51319;52.162;5.302;2023-02-28T16:03:43;9.20;38.30
43999;DHT22;51319;52.162;5.302;2023-02-28T16:08:44;9.00;38.80
43999;DHT22;51319;52.162;5.302;2023-02-28T16:11:11;8.90;39.00
43999;DHT22;51319;52.162;5.302;2023-02-28T16:13:38;8.80;39.00
43999;DHT22;51319;52.162;5.302;2023-02-28T16:16:05;8.70;39.20
43999;DHT22;51319;52.162;5.302;2023-02-28T16:18:40;8.60;39.30
43999;DHT22;51319;52.162;5.302;2023-02-28T16:21:30;8.50;39.60
43999;DHT22;51319;52.162;5.302;2023-02-28T16:23:57;8.40;39.60
43999;DHT22;51319;52.162;5.302;2023-02-28T16:26:25;8.30;39.80
43999;DHT22;51319;52.162;5.302;2023-02-28T16:28:54;8.20;40.10
43999;DHT22;51319;52.162;5.302;2023-02-28T16:31:21;8.10;40.30
43999;DHT22;51319;52.162;5.302;2023-02-28T16:33:48;8.10;40.90
43999;DHT22;51319;52.162;5.302;2023-02-28T16:36:17;8.00;41.20
43999;DHT22;51319;52.162;5.302;2023-02-28T16:38:45;7.90;41.30
43999;DHT22;51319;52.162;5.302;2023-02-28T16:41:16;7.80;41.20
43999;DHT22;51319;52.162;5.302;2023-02-28T16:43:47;7.70;41.30
43999;DHT22;51319;52.162;5.302;2023-02-28T16:46:17;7.60;41.50
43999;DHT22;51319;52.162;5.302;2023-02-28T16:48:45;7.50;41.80
43999;DHT22;51319;52.162;5.302;2023-02-28T16:51:15;7.40;42.10
43999;DHT22;51319;52.162;5.302;2023-02-28T16:53:43;7.40;42.80
43999;DHT22;51319;52.162;5.302;2023-02-28T16:56:17;7.30;43.20
43999;DHT22;51319;52.162;5.302;2023-02-28T16:58:45;7.20;44.10
43999;DHT22;51319;52.162;5.302;2023-02-28T17:01:12;7.10;44.60
43999;DHT22;51319;52.162;5.302;2023-02-28T17:03:40;6.90;45.40
43999;DHT22;51319;52.162;5.302;2023-02-28T17:06:20;6.90;46.30
43999;DHT22;51319;52.162;5.302;2023-02-28T17:08:49;6.80;47.20
43999;DHT22;51319;52.162;5.302;2023-02-28T17:11:17;6.70;47.70
43999;DHT22;51319;52.162;5.302;2023-02-28T17:13:44;6.50;48.30
43999;DHT22;51319;52.162;5.302;2023-02-28T17:16:31;6.50;48.90
43999;DHT22;51319;52.162;5.302;2023-02-28T17:19:02;6.40;49.80
43999;DHT22;51319;52.162;5.302;2023-02-28T17:21:30;6.30;49.80
43999;DHT22;51319;52.162;5.302;2023-02-28T17:23:58;6.20;50.00
43999;DHT22;51319;52.162;5.302;2023-02-28T17:26:25;6.20;50.50
43999;DHT22;51319;52.162;5.302;2023-02-28T17:28:53;6.10;50.90
43999;DHT22;51319;52.162;5.302;2023-02-28T17:31:23;6.00;51.00
43999;DHT22;51319;52.162;5.302;2023-02-28T17:33:52;5.90;51.40
43999;DHT22;51319;52.162;5.302;2023-02-28T17:36:24;5.80;51.50
43999;DHT22;51319;52.162;5.302;2023-02-28T17:38:55;5.70;52.20
43999;DHT22;51319;52.162;5.302;2023-02-28T17:41:22;5.70;52.40
43999;DHT22;51319;52.162;5.302;2023-02-28T17:43:49;5.60;52.50
43999;DHT22;51319;52.162;5.302;2023-02-28T17:46:20;5.50;52.90
43999;DHT22;51319;52.162;5.302;2023-02-28T17:48:48;5.50;53.20
43999;DHT22;51319;52.162;5.302;2023-02-28T17:51:16;5.40;53.40
43999;DHT22;51319;52.162;5.302;2023-02-28T17:53:44;5.30;53.70
43999;DHT22;51319;52.162;5.302;2023-02-28T17:56:13;5.20;54.00
43999;DHT22;51319;52.162;5.302;2023-02-28T17:58:40;5.20;54.70
43999;DHT22;51319;52.162;5.302;2023-02-28T18:01:08;5.10;54.60
43999;DHT22;51319;52.162;5.302;2023-02-28T18:03:36;5.10;55.70
43999;DHT22;51319;52.162;5.302;2023-02-28T18:06:03;5.10;55.60
43999;DHT22;51319;52.162;5.302;2023-02-28T18:08:34;5.00;55.50
43999;DHT22;51319;52.162;5.302;2023-02-28T18:11:01;4.90;55.60
43999;DHT22;51319;52.162;5.302;2023-02-28T18:13:29;4.90;55.60
43999;DHT22;51319;52.162;5.302;2023-02-28T18:15:56;4.80;55.80
43999;DHT22;51319;52.162;5.302;2023-02-28T18:18:23;4.70;56.10
43999;DHT22;51319;52.162;5.302;2023-02-28T18:23:18;4.50;56.20
43999;DHT22;51319;52.162;5.302;2023-02-28T18:25:49;4.50;57.20
43999;DHT22;51319;52.162;5.302;2023-02-28T18:28:16;4.50;57.30
43999;DHT22;51319;52.162;5.302;2023-02-28T18:30:43;4.40;57.30
43999;DHT22;51319;52.162;5.302;2023-02-28T18:33:13;4.30;57.60
43999;DHT22;51319;52.162;5.302;2023-02-28T18:35:40;4.20;57.90